createdAt,value
2023-06-30T00:01:49.953Z,96.72
2023-06-30T00:04:19.796Z,96.68
2023-06-30T00:06:51.029Z,97.06
2023-06-30T00:09:20.589Z,96.71
2023-06-30T00:11:52.034Z,96.89
2023-06-30T00:14:21.113Z,96.80
2023-06-30T00:16:51.052Z,97.15
2023-06-30T00:19:20.231Z,97.57
2023-06-30T00:21:49.447Z,97.65
2023-06-30T00:24:17.535Z,98.14
2023-06-30T00:26:45.622Z,98.05
2023-06-30T00:29:13.809Z,98.41
2023-06-30T00:31:41.839Z,98.34
2023-06-30T00:34:10.112Z,98.63
2023-06-30T00:36:39.654Z,98.66
2023-06-30T00:39:07.769Z,99.24
2023-06-30T00:41:35.940Z,99.22
2023-06-30T00:44:04.069Z,99.42
2023-06-30T00:46:32.110Z,99.48
2023-06-30T00:49:00.078Z,99.65
2023-06-30T00:51:27.938Z,99.64
2023-06-30T00:53:57.183Z,99.76
2023-06-30T00:56:27.470Z,99.85
2023-06-30T00:58:55.883Z,99.91
2023-06-30T01:01:37.649Z,99.96
2023-06-30T01:04:18.320Z,99.93
2023-06-30T01:06:55.463Z,100.00
2023-06-30T01:09:27.456Z,100.00
2023-06-30T01:11:56.436Z,100.00
2023-06-30T01:14:25.631Z,100.00
2023-06-30T01:16:53.582Z,100.00
2023-06-30T01:19:31.924Z,100.00
2023-06-30T01:22:35.072Z,100.00
2023-06-30T01:25:07.916Z,100.00
2023-06-30T01:27:37.493Z,100.00
2023-06-30T01:30:10.303Z,100.00
2023-06-30T01:32:39.322Z,100.00
2023-06-30T01:35:07.552Z,100.00
2023-06-30T01:37:35.469Z,100.00
2023-06-30T01:40:05.412Z,100.00
2023-06-30T01:42:35.812Z,100.00
2023-06-30T01:45:04.924Z,100.00
2023-06-30T01:47:33.746Z,100.00
2023-06-30T01:50:01.889Z,100.00
2023-06-30T01:52:29.763Z,100.00
2023-06-30T01:54:59.697Z,100.00
2023-06-30T01:57:27.601Z,100.00
2023-06-30T01:59:55.612Z,100.00
2023-06-30T02:02:23.560Z,100.00
2023-06-30T02:04:51.619Z,100.00
2023-06-30T02:07:19.463Z,100.00
2023-06-30T02:09:49.016Z,100.00
2023-06-30T02:12:17.676Z,100.00
2023-06-30T02:14:45.626Z,100.00
2023-06-30T02:17:14.559Z,100.00
2023-06-30T02:19:43.143Z,100.00
2023-06-30T02:22:11.125Z,100.00
2023-06-30T02:24:39.066Z,100.00
2023-06-30T02:27:08.791Z,100.00
2023-06-30T02:29:36.837Z,100.00
2023-06-30T02:32:05.327Z,100.00
2023-06-30T02:34:33.120Z,100.00
2023-06-30T02:37:02.219Z,100.00
2023-06-30T02:39:30.142Z,100.00
2023-06-30T02:41:57.997Z,100.00
2023-06-30T02:44:25.884Z,100.00
2023-06-30T02:46:53.695Z,100.00
2023-06-30T02:49:21.650Z,100.00
2023-06-30T02:51:49.823Z,100.00
2023-06-30T02:54:17.767Z,100.00
2023-06-30T02:56:46.169Z,100.00
2023-06-30T02:59:14.703Z,100.00
2023-06-30T03:01:42.769Z,100.00
2023-06-30T03:04:11.432Z,100.00
2023-06-30T03:06:39.422Z,100.00
2023-06-30T03:09:09.377Z,100.00
2023-06-30T03:11:37.570Z,100.00
2023-06-30T03:14:05.518Z,100.00
2023-06-30T03:16:40.668Z,100.00
2023-06-30T03:19:08.716Z,100.00
2023-06-30T03:21:36.958Z,100.00
2023-06-30T03:24:05.021Z,100.00
2023-06-30T03:26:32.904Z,100.00
2023-06-30T03:29:02.938Z,100.00
2023-06-30T03:31:31.596Z,100.00
2023-06-30T03:34:00.195Z,100.00
2023-06-30T03:36:29.533Z,100.00
2023-06-30T03:38:57.578Z,100.00
2023-06-30T03:41:25.581Z,100.00
2023-06-30T03:43:53.491Z,100.00
2023-06-30T03:46:22.981Z,100.00
2023-06-30T03:48:50.887Z,100.00
2023-06-30T03:51:18.806Z,100.00
2023-06-30T03:53:49.100Z,100.00
2023-06-30T03:56:16.938Z,100.00
2023-06-30T03:58:45.400Z,100.00
2023-06-30T04:01:13.507Z,100.00
2023-06-30T04:03:42.038Z,100.00
2023-06-30T04:06:10.696Z,100.00
2023-06-30T04:08:38.554Z,100.00
2023-06-30T04:11:06.412Z,100.00
2023-06-30T04:13:34.250Z,100.00
2023-06-30T04:16:02.004Z,100.00
2023-06-30T04:18:30.040Z,100.00
2023-06-30T04:20:58.247Z,99.96
2023-06-30T04:23:26.285Z,99.66
2023-06-30T04:25:54.228Z,99.45
2023-06-30T04:28:22.100Z,99.33
2023-06-30T04:30:50.159Z,99.00
2023-06-30T04:33:18.030Z,98.86
2023-06-30T04:35:46.094Z,98.95
2023-06-30T04:38:14.405Z,98.66
2023-06-30T04:40:42.334Z,98.27
2023-06-30T04:43:13.701Z,98.17
2023-06-30T04:45:41.973Z,98.01
2023-06-30T04:48:10.006Z,97.32
2023-06-30T04:50:38.167Z,97.45
2023-06-30T04:53:06.036Z,97.52
2023-06-30T04:55:34.014Z,97.26
2023-06-30T04:58:01.869Z,96.91
2023-06-30T05:00:29.803Z,96.86
2023-06-30T05:02:57.797Z,96.85
2023-06-30T05:05:25.936Z,96.42
2023-06-30T05:07:53.918Z,96.21
2023-06-30T05:10:21.806Z,95.89
2023-06-30T05:12:50.017Z,95.88
2023-06-30T05:15:18.063Z,96.06
2023-06-30T05:17:46.003Z,96.13
2023-06-30T05:20:14.016Z,96.01
2023-06-30T05:22:41.958Z,95.71
2023-06-30T05:25:10.053Z,95.61
2023-06-30T05:27:38.064Z,95.33
2023-06-30T05:30:06.885Z,95.21
2023-06-30T05:32:35.013Z,94.93
2023-06-30T05:35:02.842Z,94.89
2023-06-30T05:37:30.812Z,94.75
2023-06-30T05:39:58.601Z,94.85
2023-06-30T05:42:26.414Z,95.00
2023-06-30T05:44:54.315Z,94.93
2023-06-30T05:47:22.173Z,94.70
2023-06-30T05:49:50.025Z,94.55
2023-06-30T05:52:17.979Z,94.46
2023-06-30T05:54:45.925Z,94.52
2023-06-30T05:57:13.910Z,94.50
2023-06-30T05:59:41.794Z,93.95
2023-06-30T06:02:09.817Z,93.81
2023-06-30T06:04:37.920Z,93.68
2023-06-30T06:07:06.827Z,93.35
2023-06-30T06:09:35.004Z,93.03
2023-06-30T06:12:03.761Z,92.91
2023-06-30T06:14:31.858Z,92.62
2023-06-30T06:17:00.050Z,92.59
2023-06-30T06:19:28.012Z,92.37
2023-06-30T06:21:55.894Z,91.29
2023-06-30T06:24:23.729Z,91.01
2023-06-30T06:26:51.843Z,90.83
2023-06-30T06:29:23.858Z,90.61
2023-06-30T06:31:54.295Z,90.35
2023-06-30T06:34:23.245Z,90.03
2023-06-30T06:36:51.224Z,89.74
2023-06-30T06:39:20.548Z,89.29
2023-06-30T06:41:48.544Z,86.64
2023-06-30T06:44:18.565Z,86.27
2023-06-30T06:46:46.791Z,86.37
2023-06-30T06:49:14.918Z,86.06
2023-06-30T06:51:42.893Z,86.18
2023-06-30T06:54:10.848Z,85.52
2023-06-30T06:56:38.738Z,85.31
2023-06-30T06:59:06.650Z,84.99
2023-06-30T07:01:34.995Z,83.87
2023-06-30T07:04:03.026Z,84.14
2023-06-30T07:06:30.863Z,83.29
2023-06-30T07:08:58.718Z,83.30
2023-06-30T07:11:26.819Z,82.65
2023-06-30T07:13:54.824Z,80.00
2023-06-30T07:16:23.026Z,78.84
2023-06-30T07:18:51.019Z,77.96
2023-06-30T07:21:19.371Z,78.15
2023-06-30T07:23:50.065Z,78.34
2023-06-30T07:26:17.989Z,78.31
2023-06-30T07:28:48.338Z,78.63
2023-06-30T07:31:16.357Z,76.75
2023-06-30T07:33:44.563Z,74.41
2023-06-30T07:36:12.695Z,73.94
2023-06-30T07:38:41.512Z,74.63
2023-06-30T07:41:09.492Z,75.15
2023-06-30T07:43:37.338Z,75.42
2023-06-30T07:46:05.919Z,75.26
2023-06-30T07:48:36.865Z,74.15
2023-06-30T07:51:09.050Z,72.81
2023-06-30T07:53:38.154Z,70.72
2023-06-30T07:56:06.285Z,71.18
2023-06-30T07:58:34.240Z,69.22
2023-06-30T08:01:02.221Z,69.05
2023-06-30T08:03:30.493Z,70.26
2023-06-30T08:06:00.253Z,70.24
2023-06-30T08:08:30.776Z,70.21
2023-06-30T08:10:59.233Z,70.03
2023-06-30T08:13:27.768Z,70.12
2023-06-30T08:15:55.953Z,67.16
2023-06-30T08:18:32.214Z,67.01
2023-06-30T08:21:04.389Z,67.03
2023-06-30T08:23:32.482Z,66.83
2023-06-30T08:26:00.569Z,66.06
2023-06-30T08:28:28.705Z,65.82
2023-06-30T08:30:56.883Z,63.81
2023-06-30T08:36:03.348Z,56.51
2023-06-30T08:38:31.990Z,55.20
2023-06-30T08:41:01.373Z,58.37
2023-06-30T08:43:31.576Z,60.04
2023-06-30T08:46:04.562Z,60.03
2023-06-30T08:48:33.201Z,59.73
2023-06-30T08:51:02.317Z,57.97
2023-06-30T08:53:32.303Z,58.12
2023-06-30T08:56:01.181Z,59.08
2023-06-30T08:58:29.914Z,57.59
2023-06-30T09:00:58.355Z,56.90
2023-06-30T09:03:27.968Z,55.93
2023-06-30T09:05:59.660Z,55.22
2023-06-30T09:09:04.272Z,55.33
2023-06-30T09:11:34.479Z,55.75
2023-06-30T09:14:05.025Z,54.93
2023-06-30T09:16:33.144Z,54.27
2023-06-30T09:19:01.183Z,54.67
2023-06-30T09:21:29.129Z,54.64
2023-06-30T09:23:57.855Z,54.32
2023-06-30T09:28:58.890Z,54.76
2023-06-30T09:31:31.839Z,54.85
2023-06-30T09:34:11.603Z,55.88
2023-06-30T09:36:49.071Z,55.83
2023-06-30T09:39:17.726Z,55.07
2023-06-30T09:41:47.424Z,55.40
2023-06-30T09:44:24.161Z,53.95
2023-06-30T09:46:54.436Z,54.09
2023-06-30T09:49:26.321Z,52.64
2023-06-30T09:51:57.535Z,51.17
2023-06-30T09:54:43.771Z,51.57
2023-06-30T09:57:13.122Z,52.24
2023-06-30T09:59:40.990Z,52.85
2023-06-30T10:02:11.476Z,53.28
2023-06-30T10:04:39.626Z,53.22
2023-06-30T10:07:08.618Z,52.60
2023-06-30T10:09:39.581Z,52.55
2023-06-30T10:12:10.856Z,51.12
2023-06-30T10:14:39.587Z,50.59
2023-06-30T10:17:09.090Z,49.48
2023-06-30T10:19:40.457Z,49.30
2023-06-30T10:22:09.037Z,49.55
2023-06-30T10:24:42.870Z,50.07
2023-06-30T10:27:14.200Z,50.43
2023-06-30T10:29:42.258Z,50.04
2023-06-30T10:32:10.082Z,49.75
2023-06-30T10:34:38.651Z,48.87
2023-06-30T10:37:08.755Z,45.44
2023-06-30T10:39:37.007Z,45.25
2023-06-30T10:42:09.234Z,45.58
2023-06-30T10:44:44.798Z,46.48
2023-06-30T10:47:12.975Z,47.41
2023-06-30T10:49:42.494Z,47.70
2023-06-30T10:52:25.938Z,47.64
2023-06-30T10:54:55.194Z,47.39
2023-06-30T10:57:29.785Z,47.16
2023-06-30T11:00:08.198Z,46.83
2023-06-30T11:02:36.363Z,46.02
2023-06-30T11:05:24.274Z,46.45
2023-06-30T11:08:08.602Z,44.88
2023-06-30T11:10:38.710Z,45.58
2023-06-30T11:13:10.498Z,46.17
2023-06-30T11:15:45.115Z,45.69
2023-06-30T11:18:16.647Z,44.64
2023-06-30T11:21:01.218Z,44.84
2023-06-30T11:23:34.336Z,43.41
2023-06-30T11:26:16.448Z,42.67
2023-06-30T11:28:49.524Z,42.71
2023-06-30T11:31:18.244Z,42.60
2023-06-30T11:33:47.417Z,42.24
2023-06-30T11:36:19.829Z,41.90
2023-06-30T11:38:52.248Z,42.13
2023-06-30T11:41:25.158Z,41.48
2023-06-30T11:43:56.724Z,40.36
2023-06-30T11:46:25.132Z,40.52
2023-06-30T11:48:53.809Z,40.21
2023-06-30T11:51:22.440Z,39.50
2023-06-30T11:53:50.682Z,39.86
2023-06-30T11:56:19.793Z,40.66
2023-06-30T11:58:51.849Z,40.13
2023-06-30T12:01:23.613Z,41.16
2023-06-30T12:04:23.043Z,41.14
2023-06-30T12:06:51.246Z,41.15
2023-06-30T12:09:19.151Z,41.01
2023-06-30T12:11:51.373Z,41.44
2023-06-30T12:16:54.705Z,40.27
2023-06-30T12:19:29.541Z,39.38
2023-06-30T12:22:01.281Z,38.58
2023-06-30T12:24:33.811Z,39.24
2023-06-30T12:27:09.028Z,39.05
2023-06-30T12:29:37.784Z,38.43
2023-06-30T12:32:16.262Z,39.02
2023-06-30T12:34:47.657Z,39.42
2023-06-30T12:37:21.019Z,39.77
2023-06-30T12:39:49.164Z,39.77
2023-06-30T12:42:19.388Z,39.57
2023-06-30T12:44:47.432Z,39.41
2023-06-30T12:47:15.422Z,39.08
2023-06-30T12:49:43.461Z,38.14
2023-06-30T12:52:11.551Z,38.28
2023-06-30T12:54:39.526Z,39.33
2023-06-30T12:57:07.864Z,39.20
2023-06-30T12:59:35.832Z,38.44
2023-06-30T13:02:03.825Z,38.45
2023-06-30T13:04:31.766Z,38.49
2023-06-30T13:07:00.664Z,38.38
2023-06-30T13:09:28.756Z,37.10
2023-06-30T13:11:57.045Z,37.68
2023-06-30T13:14:25.115Z,36.61
2023-06-30T13:16:53.075Z,36.48
2023-06-30T13:19:23.414Z,36.80
2023-06-30T13:21:52.166Z,37.61
2023-06-30T13:24:20.009Z,38.10
2023-06-30T13:26:48.390Z,38.19
2023-06-30T13:29:18.003Z,38.59
2023-06-30T13:31:46.567Z,38.45
2023-06-30T13:34:14.461Z,39.25
2023-06-30T13:36:42.424Z,39.93
2023-06-30T13:39:10.462Z,40.19
2023-06-30T13:41:39.443Z,39.82
2023-06-30T13:44:07.375Z,39.75
2023-06-30T13:46:35.224Z,38.84
2023-06-30T13:49:03.191Z,38.66
2023-06-30T13:51:33.549Z,38.79
2023-06-30T13:54:04.753Z,38.82
2023-06-30T13:56:35.071Z,37.92
2023-06-30T13:59:03.139Z,37.85
2023-06-30T14:01:31.722Z,39.36
2023-06-30T14:04:05.319Z,38.74
2023-06-30T14:06:39.759Z,39.00
2023-06-30T14:09:12.383Z,39.09
2023-06-30T14:11:43.614Z,39.08
2023-06-30T14:14:11.643Z,38.66
2023-06-30T14:16:40.057Z,39.06
2023-06-30T14:19:10.484Z,38.30
2023-06-30T14:21:39.055Z,38.53
2023-06-30T14:24:07.098Z,38.36
2023-06-30T14:26:37.298Z,38.84
2023-06-30T14:29:05.557Z,38.65
2023-06-30T14:31:33.574Z,38.64
2023-06-30T14:34:01.458Z,39.29
2023-06-30T14:36:29.443Z,39.68
2023-06-30T14:38:57.301Z,39.82
2023-06-30T14:41:25.275Z,40.13
2023-06-30T14:43:53.294Z,40.61
2023-06-30T14:46:21.409Z,41.33
2023-06-30T14:48:49.865Z,41.32
2023-06-30T14:51:17.744Z,41.29
2023-06-30T14:53:45.525Z,41.60
2023-06-30T14:56:13.630Z,41.17
2023-06-30T14:58:43.009Z,41.53
2023-06-30T15:01:11.010Z,41.80
2023-06-30T15:03:39.045Z,42.72
2023-06-30T15:06:07.126Z,41.80
2023-06-30T15:08:35.868Z,41.29
2023-06-30T15:11:03.726Z,41.23
2023-06-30T15:13:31.997Z,40.53
2023-06-30T15:15:59.940Z,40.52
2023-06-30T15:18:28.078Z,40.45
2023-06-30T15:20:56.172Z,40.55
2023-06-30T15:23:24.008Z,40.55
2023-06-30T15:25:52.400Z,40.75
2023-06-30T15:28:20.312Z,41.05
2023-06-30T15:30:48.785Z,41.26
2023-06-30T15:33:17.199Z,41.23
2023-06-30T15:35:45.597Z,41.44
2023-06-30T15:38:13.860Z,40.62
2023-06-30T15:40:42.801Z,40.65
2023-06-30T15:43:10.648Z,40.31
2023-06-30T15:45:38.624Z,40.62
2023-06-30T15:48:14.147Z,41.18
2023-06-30T15:50:43.200Z,40.60
2023-06-30T15:53:11.874Z,39.73
2023-06-30T15:55:39.862Z,38.90
2023-06-30T15:58:08.972Z,38.60
2023-06-30T16:00:36.835Z,38.70
2023-06-30T16:03:07.513Z,38.75
2023-06-30T16:05:39.394Z,39.12
2023-06-30T16:08:07.654Z,37.86
2023-06-30T16:10:37.787Z,38.29
2023-06-30T16:13:09.420Z,38.64
2023-06-30T16:15:38.971Z,39.20
2023-06-30T16:18:06.947Z,39.57
2023-06-30T16:20:36.095Z,39.62
2023-06-30T16:23:04.073Z,38.94
2023-06-30T16:25:32.036Z,38.28
2023-06-30T16:28:00.059Z,38.25
2023-06-30T16:30:33.152Z,38.44
2023-06-30T16:33:01.650Z,38.55
2023-06-30T16:35:29.756Z,38.82
2023-06-30T16:38:00.743Z,38.94
2023-06-30T16:40:28.676Z,39.02
2023-06-30T16:42:56.630Z,38.75
2023-06-30T16:45:24.686Z,38.76
2023-06-30T16:47:52.638Z,39.53
2023-06-30T16:50:21.129Z,40.00
2023-06-30T16:52:50.075Z,40.05
2023-06-30T16:55:18.008Z,40.39
2023-06-30T16:57:46.120Z,40.87
2023-06-30T17:00:14.363Z,41.07
2023-06-30T17:02:42.644Z,41.32
2023-06-30T17:05:11.486Z,41.37
2023-06-30T17:07:39.426Z,42.36
2023-06-30T17:10:07.753Z,42.26
2023-06-30T17:12:35.712Z,42.13
2023-06-30T17:15:07.367Z,42.17
2023-06-30T17:17:35.666Z,42.69
2023-06-30T17:20:05.221Z,43.33
2023-06-30T17:22:33.440Z,43.52
2023-06-30T17:25:05.190Z,43.87
2023-06-30T17:27:38.455Z,44.58
2023-06-30T17:30:13.444Z,45.03
2023-06-30T17:32:41.489Z,45.08
2023-06-30T17:35:09.515Z,45.37
2023-06-30T17:37:37.533Z,45.97
2023-06-30T17:40:06.303Z,46.57
2023-06-30T17:42:34.236Z,46.87
2023-06-30T17:45:03.232Z,46.92
2023-06-30T17:47:31.313Z,47.30
2023-06-30T17:50:00.682Z,48.16
2023-06-30T17:52:28.771Z,48.25
2023-06-30T17:54:56.766Z,48.05
2023-06-30T17:57:24.588Z,48.78
2023-06-30T17:59:52.722Z,48.94
2023-06-30T18:02:20.707Z,48.88
2023-06-30T18:04:50.254Z,49.15
2023-06-30T18:07:19.572Z,49.32
2023-06-30T18:09:47.603Z,49.62
2023-06-30T18:12:15.820Z,49.82
2023-06-30T18:14:43.954Z,50.50
2023-06-30T18:17:11.954Z,50.90
2023-06-30T18:19:41.528Z,51.37
2023-06-30T18:22:09.838Z,51.31
2023-06-30T18:24:38.345Z,51.84
2023-06-30T18:27:06.638Z,52.15
2023-06-30T18:29:34.604Z,52.55
2023-06-30T18:32:02.898Z,52.27
2023-06-30T18:34:31.242Z,52.65
2023-06-30T18:37:01.622Z,52.62
2023-06-30T18:39:29.500Z,53.15
2023-06-30T18:41:57.425Z,53.75
2023-06-30T18:44:26.236Z,53.73
2023-06-30T18:46:54.281Z,55.00
2023-06-30T18:49:24.888Z,55.64
2023-06-30T18:51:55.000Z,56.08
2023-06-30T18:54:23.664Z,56.34
2023-06-30T18:56:51.962Z,57.10
2023-06-30T18:59:20.136Z,57.70
2023-06-30T19:01:48.255Z,58.29
2023-06-30T19:04:16.870Z,58.74
2023-06-30T19:06:45.233Z,59.73
2023-06-30T19:09:13.930Z,59.89
2023-06-30T19:11:41.890Z,59.42
2023-06-30T19:14:09.968Z,59.79
2023-06-30T19:16:37.910Z,60.12
2023-06-30T19:19:05.695Z,60.11
2023-06-30T19:21:33.575Z,60.19
2023-06-30T19:24:01.937Z,60.54
2023-06-30T19:26:30.066Z,61.08
2023-06-30T19:28:58.416Z,60.97
2023-06-30T19:31:27.161Z,61.43
2023-06-30T19:33:55.221Z,61.90
2023-06-30T19:36:24.798Z,61.31
2023-06-30T19:38:52.827Z,62.00
2023-06-30T19:41:21.006Z,62.15
2023-06-30T19:43:49.175Z,62.85
2023-06-30T19:46:17.590Z,63.46
2023-06-30T19:48:45.766Z,63.81
2023-06-30T19:51:13.865Z,64.03
2023-06-30T19:53:42.258Z,64.57
2023-06-30T19:56:14.501Z,65.24
2023-06-30T19:58:43.899Z,65.06
2023-06-30T20:01:11.891Z,65.10
2023-06-30T20:03:40.387Z,64.72
2023-06-30T20:06:08.783Z,64.59
2023-06-30T20:08:36.845Z,64.86
2023-06-30T20:11:04.854Z,64.73
2023-06-30T20:13:32.813Z,64.94
2023-06-30T20:16:00.763Z,65.04
2023-06-30T20:18:30.423Z,65.52
2023-06-30T20:20:58.761Z,65.94
2023-06-30T20:23:26.728Z,66.63
2023-06-30T20:25:54.940Z,67.29
2023-06-30T20:28:22.935Z,68.25
2023-06-30T20:30:51.148Z,68.28
2023-06-30T20:33:19.643Z,68.28
2023-06-30T20:35:47.847Z,68.86
2023-06-30T20:38:18.989Z,69.55
2023-06-30T20:40:47.385Z,70.20
2023-06-30T20:43:15.702Z,69.93
2023-06-30T20:45:43.772Z,69.87
2023-06-30T20:48:11.798Z,70.20
2023-06-30T20:50:39.782Z,70.65
2023-06-30T20:53:08.227Z,70.67
2023-06-30T20:55:36.182Z,70.70
2023-06-30T20:58:04.137Z,71.18
2023-06-30T21:00:32.212Z,71.53
2023-06-30T21:03:00.269Z,71.95
2023-06-30T21:05:28.532Z,71.55
2023-06-30T21:07:56.777Z,71.79
2023-06-30T21:10:24.611Z,71.71
2023-06-30T21:12:52.371Z,71.58
2023-06-30T21:15:20.296Z,71.34
2023-06-30T21:17:48.218Z,71.54
2023-06-30T21:20:16.901Z,71.50
2023-06-30T21:22:44.731Z,71.56
2023-06-30T21:25:12.790Z,71.40
2023-06-30T21:27:40.857Z,71.89
2023-06-30T21:30:11.880Z,71.54
2023-06-30T21:32:39.871Z,71.43
2023-06-30T21:35:08.148Z,71.14
2023-06-30T21:37:36.065Z,71.12
2023-06-30T21:40:04.328Z,71.26
2023-06-30T21:42:32.117Z,71.40
2023-06-30T21:45:00.034Z,71.46
2023-06-30T21:47:28.199Z,71.74
2023-06-30T21:49:56.313Z,71.82
2023-06-30T21:52:24.270Z,71.73
2023-06-30T21:54:52.139Z,71.40
2023-06-30T21:57:20.098Z,71.31
2023-06-30T21:59:48.036Z,71.52
2023-06-30T22:02:16.212Z,71.49
2023-06-30T22:04:44.317Z,71.43
2023-06-30T22:07:12.784Z,71.51
2023-06-30T22:09:40.601Z,71.53
2023-06-30T22:12:08.753Z,71.64
2023-06-30T22:14:37.108Z,71.94
2023-06-30T22:17:05.769Z,71.97
2023-06-30T22:19:35.138Z,71.94
2023-06-30T22:22:05.686Z,72.03
2023-06-30T22:24:33.836Z,72.00
2023-06-30T22:27:01.743Z,72.01
2023-06-30T22:29:29.817Z,72.09
2023-06-30T22:31:57.687Z,72.32
2023-06-30T22:34:25.878Z,72.19
2023-06-30T22:36:53.751Z,72.44
2023-06-30T22:39:21.629Z,72.43
2023-06-30T22:41:49.524Z,72.71
2023-06-30T22:44:17.476Z,72.71
2023-06-30T22:46:45.332Z,72.83
2023-06-30T22:49:13.383Z,72.90
2023-06-30T22:51:41.421Z,72.87
2023-06-30T22:54:09.196Z,73.07
2023-06-30T22:56:37.106Z,73.38
2023-06-30T22:59:05.036Z,73.71
2023-06-30T23:01:33.063Z,73.84
2023-06-30T23:04:01.341Z,73.92
2023-06-30T23:06:29.635Z,74.63
2023-06-30T23:08:57.847Z,74.79
2023-06-30T23:11:26.024Z,74.84
2023-06-30T23:13:53.967Z,75.20
2023-06-30T23:16:22.936Z,75.50
2023-06-30T23:18:50.885Z,75.61
2023-06-30T23:21:19.493Z,75.55
2023-06-30T23:23:47.526Z,75.40
2023-06-30T23:26:16.175Z,75.64
2023-06-30T23:28:50.478Z,75.27
2023-06-30T23:31:22.789Z,75.39
2023-06-30T23:33:53.308Z,75.62
2023-06-30T23:36:21.357Z,76.05
2023-06-30T23:38:51.225Z,75.71
2023-06-30T23:41:19.095Z,76.02
2023-06-30T23:43:48.103Z,75.84
2023-06-30T23:46:20.633Z,75.88
2023-06-30T23:48:51.727Z,76.08
2023-06-30T23:51:19.667Z,76.24
2023-06-30T23:53:47.676Z,76.49
2023-06-30T23:56:15.581Z,76.59
2023-06-30T23:58:43.425Z,76.65
